Mexico — XCMK — position and weather

sailwx.info

Track history (hours):
 
Tides and Currents Weather Stations Pressure Air Temp Water Temp Dewpoint Dewpoint Depression Visibility Wind Speed Wind Dir Waves Ship Positions

Mexico

Last reported at 2018-Jan-20 21:01 UTC. Time now 2018-Jan-20 21:02 UTC.
Position N 20°31' W 086°57'.

Length 35 m; draft 1.5 m.

MMSI: 345110006.

Date/timePositionNaut miles runAvg speedWind from/ knotsBaromVisibWave heightAir tempDewpointWater temp
2018-Jan-20 21:01N 20°31' W 086°57'4 0.7
2018-Jan-20 14:44N 20°32' W 087°01'315.6
2018-Jan-20 14:30N 20°30' W 086°59'1 1.9
2018-Jan-20 14:00N 20°29' W 086°59'2 4.4
2018-Jan-20 13:31N 20°31' W 086°57'0 0.8
2018-Jan-20 13:00N 20°31' W 086°57'0 0.0
2018-Jan-20 12:30N 20°31' W 086°57'0 0.0
2018-Jan-20 12:00N 20°31' W 086°57'0 0.0
2018-Jan-19 23:45N 20°31' W 086°57'0 1.0
2018-Jan-19 23:30N 20°31' W 086°57'1 1.1
2018-Jan-19 23:00N 20°30' W 086°57'3 0.3
2018-Jan-19 13:59N 20°33' W 086°60'3 6.3
2018-Jan-19 13:31N 20°31' W 086°57'0 0.5
2018-Jan-19 13:01N 20°31' W 086°57'0 0.1
2018-Jan-19 12:30N 20°31' W 086°57'0 0.0
2018-Jan-19 01:21N 20°31' W 086°57'0 0.6
2018-Jan-19 01:00N 20°31' W 086°57'0 0.6
2018-Jan-19 00:30N 20°31' W 086°57'0 0.0
2018-Jan-19 00:00N 20°31' W 086°57'0 0.2
2018-Jan-18 23:30N 20°31' W 086°57'0 0.3
2018-Jan-18 23:00N 20°31' W 086°57'3 4.9
2018-Jan-18 22:29N 20°29' W 086°58'5 0.5
2018-Jan-18 13:53N 20°32' W 087°01'511.1
2018-Jan-18 13:29N 20°29' W 086°58'0 0.0
2018-Jan-18 12:59N 20°29' W 086°58'1 2.4
2018-Jan-18 12:30N 20°30' W 086°58'2 0.1
2018-Jan-18 01:37N 20°31' W 086°57'0 1.9
2018-Jan-18 01:30N 20°31' W 086°57'0 0.2
2018-Jan-18 01:00N 20°31' W 086°57'0 0.0
2018-Jan-18 00:00N 20°31' W 086°57'0 0.0
2018-Jan-17 23:57N 20°31' W 086°57'  
2018-Jan-12 14:58N 20°31' W 086°57'0 0.0
2018-Jan-12 14:28N 20°31' W 086°57'0 0.5
2018-Jan-12 14:00N 20°31' W 086°57'0 0.0
2018-Jan-12 13:31N 20°31' W 086°57'0 0.0
2018-Jan-12 13:00N 20°31' W 086°57'0 0.0
2018-Jan-11 23:41N 20°31' W 086°57'0 0.0
2018-Jan-11 23:30N 20°31' W 086°57'0 0.0
2018-Jan-11 23:00N 20°31' W 086°57'0 0.0
2018-Jan-11 22:30N 20°31' W 086°57'0 0.0
2018-Jan-11 21:59N 20°31' W 086°57'2 4.3
2018-Jan-11 21:30N 20°29' W 086°59'3 0.4
2018-Jan-11 13:54N 20°32' W 087°01'4 9.9
2018-Jan-11 13:30N 20°29' W 086°58'0 0.0
2018-Jan-11 13:00N 20°29' W 086°58'2 4.7
2018-Jan-11 12:30N 20°31' W 086°57'0 0.0
2018-Jan-11 01:37N 20°31' W 086°57'0 1.0
2018-Jan-11 01:30N 20°31' W 086°57'0 0.2
2018-Jan-11 00:59N 20°31' W 086°57'0 0.0
2018-Jan-11 00:30N 20°31' W 086°57'0 0.0
2018-Jan-11 00:00N 20°31' W 086°57'0 0.0
2018-Jan-10 23:30N 20°31' W 086°57'0 0.0
2018-Jan-10 23:00N 20°31' W 086°57'2 4.6
2018-Jan-10 22:30N 20°29' W 086°58'  
Track history (hours):
 
Tides and Currents Weather Stations Pressure Air Temp Water Temp Dewpoint Dewpoint Depression Visibility Wind Speed Wind Dir Waves Ship Positions

Mexico

Last reported at 2018-Jan-20 21:01 UTC. Time now 2018-Jan-20 21:02 UTC.
Position N 20°31' W 086°57'.

Length 35 m; draft 1.5 m.

MMSI: 345110006.

Date/timePositionNaut miles runAvg speedWind from/ knotsBaromVisibWave heightAir tempDewpointWater temp
2018-Jan-20 21:01N 20°31' W 086°57'4 0.7
2018-Jan-20 14:44N 20°32' W 087°01'315.6
2018-Jan-20 14:30N 20°30' W 086°59'1 1.9
2018-Jan-20 14:00N 20°29' W 086°59'2 4.4
2018-Jan-20 13:31N 20°31' W 086°57'0 0.8
2018-Jan-20 13:00N 20°31' W 086°57'0 0.0
2018-Jan-20 12:30N 20°31' W 086°57'0 0.0
2018-Jan-20 12:00N 20°31' W 086°57'0 0.0
2018-Jan-19 23:45N 20°31' W 086°57'0 1.0
2018-Jan-19 23:30N 20°31' W 086°57'1 1.1
2018-Jan-19 23:00N 20°30' W 086°57'3 0.3
2018-Jan-19 13:59N 20°33' W 086°60'3 6.3
2018-Jan-19 13:31N 20°31' W 086°57'0 0.5
2018-Jan-19 13:01N 20°31' W 086°57'0 0.1
2018-Jan-19 12:30N 20°31' W 086°57'0 0.0
2018-Jan-19 01:21N 20°31' W 086°57'0 0.6
2018-Jan-19 01:00N 20°31' W 086°57'0 0.6
2018-Jan-19 00:30N 20°31' W 086°57'0 0.0
2018-Jan-19 00:00N 20°31' W 086°57'0 0.2
2018-Jan-18 23:30N 20°31' W 086°57'0 0.3
2018-Jan-18 23:00N 20°31' W 086°57'3 4.9
2018-Jan-18 22:29N 20°29' W 086°58'5 0.5
2018-Jan-18 13:53N 20°32' W 087°01'511.1
2018-Jan-18 13:29N 20°29' W 086°58'0 0.0
2018-Jan-18 12:59N 20°29' W 086°58'1 2.4
2018-Jan-18 12:30N 20°30' W 086°58'2 0.1
2018-Jan-18 01:37N 20°31' W 086°57'0 1.9
2018-Jan-18 01:30N 20°31' W 086°57'0 0.2
2018-Jan-18 01:00N 20°31' W 086°57'0 0.0
2018-Jan-18 00:00N 20°31' W 086°57'0 0.0
2018-Jan-17 23:57N 20°31' W 086°57'  
2018-Jan-12 14:58N 20°31' W 086°57'0 0.0
2018-Jan-12 14:28N 20°31' W 086°57'0 0.5
2018-Jan-12 14:00N 20°31' W 086°57'0 0.0
2018-Jan-12 13:31N 20°31' W 086°57'0 0.0
2018-Jan-12 13:00N 20°31' W 086°57'0 0.0
2018-Jan-11 23:41N 20°31' W 086°57'0 0.0
2018-Jan-11 23:30N 20°31' W 086°57'0 0.0
2018-Jan-11 23:00N 20°31' W 086°57'0 0.0
2018-Jan-11 22:30N 20°31' W 086°57'0 0.0
2018-Jan-11 21:59N 20°31' W 086°57'2 4.3
2018-Jan-11 21:30N 20°29' W 086°59'3 0.4
2018-Jan-11 13:54N 20°32' W 087°01'4 9.9
2018-Jan-11 13:30N 20°29' W 086°58'0 0.0
2018-Jan-11 13:00N 20°29' W 086°58'2 4.7
2018-Jan-11 12:30N 20°31' W 086°57'0 0.0
2018-Jan-11 01:37N 20°31' W 086°57'0 1.0
2018-Jan-11 01:30N 20°31' W 086°57'0 0.2
2018-Jan-11 00:59N 20°31' W 086°57'0 0.0
2018-Jan-11 00:30N 20°31' W 086°57'0 0.0
2018-Jan-11 00:00N 20°31' W 086°57'0 0.0
2018-Jan-10 23:30N 20°31' W 086°57'0 0.0
2018-Jan-10 23:00N 20°31' W 086°57'2 4.6
2018-Jan-10 22:30N 20°29' W 086°58'  

Dump ship's entire track history